createdAt,value
2023-03-23T00:00:19.192Z,43.26
2023-03-23T00:01:19.094Z,45.25
2023-03-23T00:04:47.135Z,42.46
2023-03-23T00:05:47.096Z,43.33
2023-03-23T00:06:47.093Z,43.92
2023-03-23T00:07:47.084Z,44.74
2023-03-23T00:08:47.063Z,42.41
2023-03-23T00:09:47.067Z,42.31
2023-03-23T00:10:47.048Z,42.41
2023-03-23T00:11:47.032Z,41.53
2023-03-23T00:12:47.020Z,40.42
2023-03-23T00:13:47.015Z,39.59
2023-03-23T00:14:47.012Z,39.15
2023-03-23T00:15:46.992Z,40.16
2023-03-23T00:16:46.976Z,40.71
2023-03-23T00:17:46.978Z,42.09
2023-03-23T00:18:46.978Z,43.16
2023-03-23T00:19:46.966Z,46.43
2023-03-23T00:20:46.941Z,43.13
2023-03-23T00:21:46.934Z,43.39
2023-03-23T00:22:46.923Z,42.63
2023-03-23T00:23:46.911Z,47.74
2023-03-23T00:24:46.949Z,42.38
2023-03-23T00:25:46.897Z,43.77
2023-03-23T00:26:48.069Z,42.74
2023-03-23T00:27:46.875Z,42.68
2023-03-23T00:28:46.864Z,41.97
2023-03-23T00:29:46.854Z,42.13
2023-03-23T00:30:46.862Z,42.93
2023-03-23T00:31:46.831Z,43.40
2023-03-23T00:32:46.815Z,42.62
2023-03-23T00:33:46.821Z,44.02
2023-03-23T00:34:46.804Z,44.07
2023-03-23T00:35:46.836Z,42.60
2023-03-23T00:36:46.780Z,42.36
2023-03-23T00:37:46.775Z,41.37
2023-03-23T00:38:46.759Z,42.70
2023-03-23T00:39:46.757Z,43.90
2023-03-23T00:40:46.754Z,42.01
2023-03-23T00:41:46.729Z,42.71
2023-03-23T00:42:46.728Z,43.00
2023-03-23T00:43:46.720Z,41.72
2023-03-23T00:44:46.697Z,42.75
2023-03-23T00:45:46.702Z,43.00
2023-03-23T00:46:46.674Z,44.87
2023-03-23T00:47:46.671Z,42.38
2023-03-23T00:48:46.659Z,42.12
2023-03-23T00:49:46.652Z,40.73
2023-03-23T00:50:46.646Z,42.56
2023-03-23T00:51:46.652Z,43.41
2023-03-23T00:52:46.616Z,43.55
2023-03-23T00:53:46.619Z,43.65
2023-03-23T00:54:46.597Z,43.75
2023-03-23T00:55:46.603Z,43.18
2023-03-23T00:56:46.578Z,43.99
2023-03-23T00:57:46.567Z,43.44
2023-03-23T00:58:46.560Z,42.72
2023-03-23T00:59:46.549Z,41.30
2023-03-23T01:00:46.561Z,41.35
2023-03-23T01:01:46.532Z,41.78
2023-03-23T01:02:46.526Z,40.71
2023-03-23T01:03:46.508Z,41.15
2023-03-23T01:04:46.509Z,45.56
2023-03-23T01:05:46.501Z,49.85
2023-03-23T01:06:46.478Z,42.28
2023-03-23T01:07:46.476Z,43.16
2023-03-23T01:08:46.456Z,44.01
2023-03-23T01:09:46.455Z,41.91
2023-03-23T01:10:46.459Z,43.49
2023-03-23T01:11:46.467Z,42.48
2023-03-23T01:12:47.595Z,41.13
2023-03-23T01:13:47.575Z,41.12
2023-03-23T01:14:47.537Z,40.97
2023-03-23T01:15:47.559Z,43.27
2023-03-23T01:16:47.530Z,42.47
2023-03-23T01:17:47.513Z,41.77
2023-03-23T01:18:47.493Z,40.88
2023-03-23T01:19:47.537Z,40.65
2023-03-23T01:20:47.511Z,41.42
2023-03-23T01:21:47.483Z,47.37
2023-03-23T01:22:47.504Z,45.36
2023-03-23T01:23:47.460Z,43.32
2023-03-23T01:24:47.446Z,42.18
2023-03-23T01:25:47.457Z,41.81
2023-03-23T01:26:47.441Z,41.52
2023-03-23T01:27:47.422Z,41.16
2023-03-23T01:28:47.430Z,42.74
2023-03-23T01:29:47.393Z,40.33
2023-03-23T01:30:47.401Z,41.11
2023-03-23T01:31:47.396Z,41.32
2023-03-23T01:32:47.384Z,42.54
2023-03-23T01:33:47.392Z,41.09
2023-03-23T01:34:47.377Z,41.04
2023-03-23T01:35:47.390Z,44.59
2023-03-23T01:36:47.341Z,44.93
2023-03-23T01:37:47.382Z,43.58
2023-03-23T01:38:47.366Z,43.78
2023-03-23T01:39:47.337Z,43.56
2023-03-23T01:40:47.350Z,48.00
2023-03-23T01:41:47.357Z,45.71
2023-03-23T01:42:47.300Z,43.20
2023-03-23T01:43:47.302Z,43.25
2023-03-23T01:44:47.305Z,41.12
2023-03-23T01:45:47.300Z,41.96
2023-03-23T01:46:47.268Z,42.40
2023-03-23T01:47:47.253Z,43.87
2023-03-23T01:48:47.252Z,42.65
2023-03-23T01:49:47.242Z,40.52
2023-03-23T01:50:47.268Z,41.75
2023-03-23T01:51:47.280Z,41.88
2023-03-23T01:52:47.240Z,43.60
2023-03-23T01:53:47.186Z,43.66
2023-03-23T01:54:47.205Z,42.89
2023-03-23T01:55:47.207Z,45.84
2023-03-23T01:56:47.176Z,45.57
2023-03-23T01:57:47.213Z,44.89
2023-03-23T01:58:47.134Z,42.31
2023-03-23T01:59:47.195Z,42.16
2023-03-23T02:00:47.181Z,42.70
2023-03-23T02:01:47.172Z,44.82
2023-03-23T02:02:47.116Z,42.25
2023-03-23T02:03:47.102Z,43.70
2023-03-23T02:04:47.096Z,51.33
2023-03-23T02:05:47.117Z,48.62
2023-03-23T02:06:47.076Z,49.13
2023-03-23T02:07:47.110Z,47.23
2023-03-23T02:08:47.100Z,49.11
2023-03-23T02:09:47.030Z,49.32
2023-03-23T02:10:47.018Z,47.07
2023-03-23T02:11:47.051Z,45.33
2023-03-23T02:12:47.037Z,54.97
2023-03-23T02:13:47.012Z,62.64
2023-03-23T02:14:47.021Z,59.07
2023-03-23T02:15:47.039Z,49.46
2023-03-23T02:16:46.974Z,45.09
2023-03-23T02:17:47.005Z,46.19
2023-03-23T02:18:46.972Z,40.94
2023-03-23T02:19:46.974Z,40.67
2023-03-23T02:20:46.961Z,41.02
2023-03-23T02:21:46.909Z,42.22
2023-03-23T02:22:46.928Z,39.89
2023-03-23T02:23:46.965Z,42.82
2023-03-23T02:24:46.941Z,44.18
2023-03-23T02:25:46.946Z,48.88
2023-03-23T02:26:46.888Z,48.20
2023-03-23T02:27:46.930Z,40.85
2023-03-23T02:28:46.883Z,43.70
2023-03-23T02:29:46.845Z,41.68
2023-03-23T02:30:46.888Z,41.22
2023-03-23T02:31:46.841Z,42.91
2023-03-23T02:32:46.832Z,44.30
2023-03-23T02:33:46.821Z,39.46
2023-03-23T02:34:46.827Z,40.81
2023-03-23T02:35:46.806Z,42.38
2023-03-23T02:36:46.800Z,44.00
2023-03-23T02:37:46.777Z,41.99
2023-03-23T02:38:46.749Z,41.19
2023-03-23T02:39:46.743Z,45.62
2023-03-23T02:40:46.748Z,46.39
2023-03-23T02:41:46.762Z,54.73
2023-03-23T02:42:46.731Z,57.50
2023-03-23T02:43:46.695Z,57.76
2023-03-23T02:44:46.689Z,57.54
2023-03-23T02:45:46.692Z,56.43
2023-03-23T02:46:46.675Z,55.75
2023-03-23T02:47:46.711Z,58.60
2023-03-23T02:48:46.653Z,53.17
2023-03-23T02:49:46.675Z,51.48
2023-03-23T02:50:46.670Z,49.75
2023-03-23T02:51:46.667Z,50.94
2023-03-23T02:52:46.615Z,48.33
2023-03-23T02:53:46.661Z,46.31
2023-03-23T02:54:46.636Z,49.02
2023-03-23T02:55:46.602Z,47.27
2023-03-23T02:56:46.611Z,45.33
2023-03-23T02:57:46.604Z,44.72
2023-03-23T02:58:46.574Z,49.55
2023-03-23T02:59:46.576Z,47.77
2023-03-23T03:00:46.522Z,42.93
2023-03-23T03:01:46.538Z,47.10
2023-03-23T03:02:46.561Z,44.41
2023-03-23T03:03:46.533Z,44.77
2023-03-23T03:04:46.511Z,45.73
2023-03-23T03:05:46.525Z,43.48
2023-03-23T03:06:46.495Z,44.39
2023-03-23T03:07:46.460Z,44.63
2023-03-23T03:08:46.482Z,45.59
2023-03-23T03:09:46.481Z,45.43
2023-03-23T03:10:46.445Z,48.61
2023-03-23T03:11:46.455Z,44.20
2023-03-23T03:12:46.413Z,43.93
2023-03-23T03:13:46.446Z,48.25
2023-03-23T03:14:46.466Z,50.57
2023-03-23T03:15:46.424Z,48.58
2023-03-23T03:16:46.382Z,46.51
2023-03-23T03:17:46.393Z,50.35
2023-03-23T03:18:46.368Z,48.91
2023-03-23T03:19:46.356Z,46.91
2023-03-23T03:20:46.379Z,44.75
2023-03-23T03:21:46.349Z,43.80
2023-03-23T03:22:46.362Z,44.46
2023-03-23T03:23:46.330Z,46.59
2023-03-23T03:24:46.345Z,46.02
2023-03-23T03:25:46.312Z,45.32
2023-03-23T03:26:46.346Z,50.25
2023-03-23T03:27:46.340Z,48.95
2023-03-23T03:28:46.283Z,48.19
2023-03-23T03:29:46.262Z,47.16
2023-03-23T03:30:46.276Z,46.21
2023-03-23T03:31:46.249Z,44.02
2023-03-23T03:32:46.327Z,45.43
2023-03-23T03:33:46.282Z,45.28
2023-03-23T03:34:46.240Z,43.99
2023-03-23T03:35:46.261Z,43.23
2023-03-23T03:36:46.217Z,44.56
2023-03-23T03:37:46.223Z,48.14
2023-03-23T03:38:46.174Z,51.31
2023-03-23T03:39:46.183Z,50.77
2023-03-23T03:40:46.201Z,44.39
2023-03-23T03:41:46.216Z,44.52
2023-03-23T03:42:46.184Z,43.54
2023-03-23T03:43:46.159Z,50.63
2023-03-23T03:44:46.146Z,58.33
2023-03-23T03:45:46.133Z,58.36
2023-03-23T03:46:46.157Z,60.06
2023-03-23T03:47:46.151Z,57.55
2023-03-23T03:48:46.157Z,56.21
2023-03-23T03:49:46.104Z,56.41
2023-03-23T03:50:46.087Z,57.79
2023-03-23T03:51:46.106Z,54.45
2023-03-23T03:52:46.088Z,55.88
2023-03-23T03:53:46.084Z,55.18
2023-03-23T03:54:46.078Z,58.52
2023-03-23T03:55:46.020Z,59.63
2023-03-23T03:56:46.009Z,60.62
2023-03-23T03:57:46.036Z,59.66
2023-03-23T03:58:45.993Z,60.52
2023-03-23T03:59:46.970Z,65.39
2023-03-23T04:00:45.988Z,65.00
2023-03-23T04:01:45.966Z,62.59
2023-03-23T04:02:45.979Z,65.17
2023-03-23T04:03:45.940Z,62.29
2023-03-23T04:04:45.931Z,65.16
2023-03-23T04:05:45.931Z,66.47
2023-03-23T04:06:46.928Z,67.42
2023-03-23T04:07:45.905Z,64.79
2023-03-23T04:08:45.921Z,61.54
2023-03-23T04:09:46.880Z,58.92
2023-03-23T04:10:45.865Z,58.39
2023-03-23T04:11:45.874Z,60.79
2023-03-23T04:12:45.891Z,63.92
2023-03-23T04:13:45.915Z,65.14
2023-03-23T04:14:45.847Z,67.75
2023-03-23T04:15:45.853Z,65.79
2023-03-23T04:16:46.887Z,64.96
2023-03-23T04:17:46.837Z,63.80
2023-03-23T04:18:45.836Z,62.06
2023-03-23T04:19:46.805Z,60.21
2023-03-23T04:20:46.846Z,56.90
2023-03-23T04:21:45.799Z,56.02
2023-03-23T04:22:45.801Z,52.54
2023-03-23T04:23:45.789Z,55.58
2023-03-23T04:24:56.000Z,58.98
2023-03-23T04:25:46.777Z,60.16
2023-03-23T04:26:45.741Z,55.41
2023-03-23T04:27:45.796Z,56.60
2023-03-23T04:28:45.736Z,52.34
2023-03-23T04:29:45.705Z,52.87
2023-03-23T04:30:45.724Z,57.35
2023-03-23T04:31:45.721Z,51.76
2023-03-23T04:32:45.732Z,48.39
2023-03-23T04:33:59.593Z,48.98
2023-03-23T04:34:46.678Z,53.17
2023-03-23T04:35:45.660Z,51.33
2023-03-23T04:36:57.128Z,52.22
2023-03-23T04:37:46.665Z,53.37
2023-03-23T04:38:45.702Z,53.63
2023-03-23T04:39:45.638Z,54.58
2023-03-23T04:40:45.612Z,56.95
2023-03-23T04:41:45.596Z,59.66
2023-03-23T04:42:45.627Z,57.66
2023-03-23T04:43:45.566Z,57.24
2023-03-23T04:44:45.584Z,58.66
2023-03-23T04:45:45.613Z,58.54
2023-03-23T04:46:45.556Z,58.39
2023-03-23T04:47:45.553Z,58.66
2023-03-23T04:48:45.524Z,60.28
2023-03-23T04:49:45.575Z,60.67
2023-03-23T04:50:45.535Z,59.81
2023-03-23T04:51:45.492Z,58.76
2023-03-23T04:52:45.479Z,59.74
2023-03-23T04:53:45.536Z,57.86
2023-03-23T04:54:45.483Z,56.40
2023-03-23T04:55:45.466Z,57.47
2023-03-23T04:56:45.474Z,57.32
2023-03-23T04:57:45.478Z,57.35
2023-03-23T04:58:45.441Z,57.31
2023-03-23T04:59:45.453Z,57.25
2023-03-23T05:00:45.415Z,60.67
2023-03-23T05:01:45.438Z,60.59
2023-03-23T05:02:45.424Z,61.19
2023-03-23T05:03:45.393Z,61.15
2023-03-23T05:04:45.389Z,61.97
2023-03-23T05:05:45.369Z,60.99
2023-03-23T05:06:45.347Z,59.42
2023-03-23T05:07:45.465Z,58.78
2023-03-23T05:08:45.319Z,58.74
2023-03-23T05:09:45.318Z,58.36
2023-03-23T05:10:45.335Z,57.03
2023-03-23T05:11:45.313Z,57.76
2023-03-23T05:12:45.327Z,58.50
2023-03-23T05:13:45.301Z,59.72
2023-03-23T05:14:45.321Z,61.21
2023-03-23T05:15:45.266Z,60.60
2023-03-23T05:16:45.225Z,60.76
2023-03-23T05:17:45.270Z,60.83
2023-03-23T05:18:45.284Z,61.63
2023-03-23T05:19:45.237Z,63.32
2023-03-23T05:20:45.239Z,60.27
2023-03-23T05:21:45.268Z,60.27
2023-03-23T05:22:45.260Z,59.83
2023-03-23T05:23:45.192Z,60.58
2023-03-23T05:24:45.224Z,62.14
2023-03-23T05:25:45.204Z,60.25
2023-03-23T05:26:45.205Z,62.07
2023-03-23T05:27:45.202Z,62.96
2023-03-23T05:28:45.204Z,61.23
2023-03-23T05:29:45.120Z,59.14
2023-03-23T05:30:45.188Z,59.42
2023-03-23T05:31:45.194Z,59.56
2023-03-23T05:32:45.115Z,60.59
2023-03-23T05:33:45.123Z,62.13
2023-03-23T05:34:45.060Z,60.88
2023-03-23T05:35:45.313Z,60.65
2023-03-23T05:36:45.108Z,57.85
2023-03-23T05:37:45.048Z,59.79
2023-03-23T05:38:45.089Z,59.39
2023-03-23T05:39:45.044Z,59.41
2023-03-23T05:40:45.018Z,60.50
2023-03-23T05:41:46.667Z,58.18
2023-03-23T05:42:45.987Z,59.71
2023-03-23T05:43:45.014Z,62.20
2023-03-23T05:44:44.981Z,59.83
2023-03-23T05:45:44.965Z,57.93
2023-03-23T05:46:44.970Z,56.40
2023-03-23T05:47:44.947Z,53.85
2023-03-23T05:48:44.959Z,56.91
2023-03-23T05:49:44.921Z,58.01
2023-03-23T05:50:44.947Z,57.00
2023-03-23T05:51:44.915Z,57.61
2023-03-23T05:52:44.933Z,54.41
2023-03-23T05:53:44.946Z,56.67
2023-03-23T05:54:44.900Z,59.65
2023-03-23T05:55:44.879Z,60.53
2023-03-23T05:56:44.878Z,59.25
2023-03-23T05:57:44.936Z,59.91
2023-03-23T05:58:44.841Z,59.96
2023-03-23T05:59:44.857Z,58.62
2023-03-23T06:00:44.820Z,57.86
2023-03-23T06:01:44.844Z,53.91
2023-03-23T06:02:45.812Z,58.83
2023-03-23T06:03:44.850Z,56.29
2023-03-23T06:04:44.776Z,54.15
2023-03-23T06:05:44.802Z,55.97
2023-03-23T06:06:44.763Z,52.87
2023-03-23T06:07:44.760Z,52.67
2023-03-23T06:08:44.802Z,57.33
2023-03-23T06:09:44.736Z,58.49
2023-03-23T06:10:44.727Z,53.67
2023-03-23T06:11:44.730Z,51.49
2023-03-23T06:12:44.746Z,52.71
2023-03-23T06:13:44.759Z,54.13
2023-03-23T06:14:44.740Z,52.86
2023-03-23T06:15:44.682Z,52.59
2023-03-23T06:16:44.687Z,57.46
2023-03-23T06:17:44.678Z,51.75
2023-03-23T06:18:44.684Z,54.88
2023-03-23T06:19:44.638Z,55.77
2023-03-23T06:20:45.822Z,56.89
2023-03-23T06:21:44.602Z,59.65
2023-03-23T06:22:44.590Z,58.17
2023-03-23T06:23:44.654Z,53.61
2023-03-23T06:24:44.572Z,52.25
2023-03-23T06:25:44.595Z,56.87
2023-03-23T06:26:44.620Z,54.21
2023-03-23T06:27:46.501Z,54.10
2023-03-23T06:28:46.645Z,57.09
2023-03-23T06:29:44.552Z,52.06
2023-03-23T06:30:44.513Z,57.58
2023-03-23T06:31:44.481Z,54.76
2023-03-23T06:32:44.468Z,54.14
2023-03-23T06:33:44.484Z,53.78
2023-03-23T06:34:44.464Z,54.97
2023-03-23T06:35:44.713Z,56.21
2023-03-23T06:36:44.480Z,53.20
2023-03-23T06:37:44.412Z,56.55
2023-03-23T06:38:44.425Z,58.30
2023-03-23T06:39:44.373Z,54.36
2023-03-23T06:40:44.393Z,55.16
2023-03-23T06:41:44.351Z,49.98
2023-03-23T06:42:44.335Z,56.68
2023-03-23T06:43:44.378Z,53.58
2023-03-23T06:44:44.336Z,53.03
2023-03-23T06:45:44.414Z,54.29
2023-03-23T06:46:44.331Z,57.06
2023-03-23T06:47:44.322Z,55.65
2023-03-23T06:48:44.323Z,57.46
2023-03-23T06:49:44.385Z,57.06
2023-03-23T06:50:44.310Z,55.69
2023-03-23T06:51:44.321Z,54.90
2023-03-23T06:52:44.293Z,62.40
2023-03-23T06:53:44.289Z,57.92
2023-03-23T06:54:44.260Z,56.23
2023-03-23T06:55:44.241Z,55.67
2023-03-23T06:56:44.260Z,55.05
2023-03-23T06:57:44.229Z,53.81
2023-03-23T06:58:44.242Z,58.84
2023-03-23T06:59:44.198Z,57.62
2023-03-23T07:00:44.198Z,52.83
2023-03-23T07:01:44.188Z,56.13
2023-03-23T07:02:44.174Z,53.93
2023-03-23T07:03:44.188Z,52.09
2023-03-23T07:04:44.219Z,54.89
2023-03-23T07:05:44.175Z,52.92
2023-03-23T07:06:44.167Z,53.72
2023-03-23T07:07:44.145Z,54.08
2023-03-23T07:08:44.129Z,54.55
2023-03-23T07:09:44.098Z,54.33
2023-03-23T07:10:44.122Z,52.10
2023-03-23T07:11:44.124Z,54.39
2023-03-23T07:12:44.074Z,55.21
2023-03-23T07:13:44.130Z,55.01
2023-03-23T07:14:44.076Z,52.73
2023-03-23T07:15:44.171Z,50.13
2023-03-23T07:16:44.192Z,56.65
2023-03-23T07:17:44.066Z,53.12
2023-03-23T07:18:44.038Z,53.30
2023-03-23T07:19:44.107Z,55.26
2023-03-23T07:20:44.024Z,53.72
2023-03-23T07:21:43.984Z,53.80
2023-03-23T07:22:44.020Z,54.62
2023-03-23T07:23:44.023Z,51.14
2023-03-23T07:24:44.196Z,54.64
2023-03-23T07:25:44.100Z,56.15
2023-03-23T07:26:44.000Z,53.38
2023-03-23T07:27:44.007Z,54.65
2023-03-23T07:28:43.981Z,51.85
2023-03-23T07:29:43.979Z,54.02
2023-03-23T07:30:43.873Z,52.27
2023-03-23T07:31:44.959Z,55.44
2023-03-23T07:32:43.963Z,53.24
2023-03-23T07:33:43.970Z,54.00
2023-03-23T07:34:43.855Z,55.30
2023-03-23T07:35:44.101Z,52.37
2023-03-23T07:36:43.957Z,52.30
2023-03-23T07:37:44.095Z,54.86
2023-03-23T07:38:43.830Z,54.22
2023-03-23T07:39:43.848Z,52.22
2023-03-23T07:40:43.871Z,54.99
2023-03-23T07:41:43.881Z,57.30
2023-03-23T07:42:43.763Z,55.24
2023-03-23T07:43:43.803Z,51.73
2023-03-23T07:44:44.485Z,52.86
2023-03-23T07:45:43.973Z,53.04
2023-03-23T07:46:43.770Z,53.95
2023-03-23T07:47:43.758Z,53.11
2023-03-23T07:48:43.769Z,50.98
2023-03-23T07:49:43.781Z,54.01
2023-03-23T07:50:43.754Z,52.05
2023-03-23T07:51:43.716Z,50.90
2023-03-23T07:52:43.693Z,52.82
2023-03-23T07:53:43.680Z,51.67
2023-03-23T07:54:43.677Z,55.54
2023-03-23T07:55:44.088Z,53.40
2023-03-23T07:56:43.653Z,52.22
2023-03-23T07:57:43.633Z,50.90
2023-03-23T07:58:43.668Z,52.91
2023-03-23T07:59:43.616Z,49.72
2023-03-23T08:00:43.863Z,52.42
2023-03-23T08:01:43.557Z,50.09
2023-03-23T08:02:43.551Z,54.83
2023-03-23T08:03:43.572Z,55.08
2023-03-23T08:04:43.609Z,51.86
2023-03-23T08:05:43.891Z,53.09
2023-03-23T08:06:44.505Z,53.57
2023-03-23T08:07:43.545Z,51.65
2023-03-23T08:08:43.536Z,51.44
2023-03-23T08:09:43.546Z,52.81
2023-03-23T08:10:43.613Z,54.11
2023-03-23T08:11:43.587Z,52.01
2023-03-23T08:12:43.527Z,52.91
2023-03-23T08:13:43.611Z,49.65
2023-03-23T08:14:43.496Z,53.29
2023-03-23T08:15:43.771Z,55.91
2023-03-23T08:16:43.609Z,53.98
2023-03-23T08:17:43.503Z,49.38
2023-03-23T08:18:43.451Z,53.29
2023-03-23T08:19:43.522Z,53.78
2023-03-23T08:20:43.500Z,57.06
2023-03-23T08:21:43.475Z,53.83
2023-03-23T08:22:51.404Z,53.58
2023-03-23T08:23:45.400Z,49.65
2023-03-23T08:24:43.395Z,54.08
2023-03-23T08:25:43.738Z,50.95
2023-03-23T08:26:43.425Z,48.70
2023-03-23T08:27:43.355Z,52.35
2023-03-23T08:28:43.409Z,52.93
2023-03-23T08:29:43.328Z,56.06
2023-03-23T08:30:43.364Z,52.50
2023-03-23T08:31:43.325Z,51.46
2023-03-23T08:32:43.285Z,52.92
2023-03-23T08:33:43.375Z,51.26
2023-03-23T08:34:43.303Z,53.29
2023-03-23T08:35:43.453Z,50.88
2023-03-23T08:36:43.330Z,54.07
2023-03-23T08:37:43.294Z,51.75
2023-03-23T08:38:43.288Z,50.68
2023-03-23T08:39:43.321Z,53.79
2023-03-23T08:40:43.195Z,54.44
2023-03-23T08:41:44.236Z,53.18
2023-03-23T08:42:43.827Z,53.49
2023-03-23T08:43:44.315Z,50.49
2023-03-23T08:44:43.299Z,56.13
2023-03-23T08:48:41.682Z,53.72
2023-03-23T08:49:41.644Z,51.01
2023-03-23T08:50:40.858Z,55.52
2023-03-23T08:52:14.973Z,54.32
2023-03-23T08:52:41.964Z,55.44
2023-03-23T08:53:40.865Z,52.04
2023-03-23T08:54:40.902Z,51.64
2023-03-23T08:55:41.012Z,50.30
2023-03-23T08:56:40.828Z,49.65
2023-03-23T08:57:40.831Z,53.01
2023-03-23T08:58:40.796Z,53.80
2023-03-23T08:59:40.815Z,51.89
2023-03-23T09:01:18.142Z,51.09
2023-03-23T09:01:41.497Z,52.35
2023-03-23T09:02:40.937Z,52.29
2023-03-23T09:03:40.929Z,53.55
2023-03-23T09:04:40.777Z,57.46
2023-03-23T09:05:40.808Z,53.97
2023-03-23T09:06:41.013Z,49.85
2023-03-23T09:07:40.691Z,49.95
2023-03-23T09:08:40.743Z,51.55
2023-03-23T09:12:20.468Z,50.91
2023-03-23T09:13:15.311Z,54.29
2023-03-23T09:16:54.186Z,50.13
2023-03-23T09:18:34.949Z,48.81
2023-03-23T09:18:47.708Z,56.24
2023-03-23T09:19:47.656Z,53.72
2023-03-23T09:20:48.643Z,52.30
2023-03-23T09:21:47.636Z,54.54
2023-03-23T09:22:47.799Z,52.54
2023-03-23T09:24:13.882Z,56.62
2023-03-23T09:24:47.600Z,51.91
2023-03-23T09:25:47.778Z,51.71
2023-03-23T09:26:56.237Z,53.29
2023-03-23T09:27:47.583Z,51.95
2023-03-23T09:28:47.584Z,57.52
2023-03-23T09:29:47.557Z,50.01
2023-03-23T09:30:53.306Z,50.84
2023-03-23T09:31:48.559Z,52.71
2023-03-23T09:32:47.587Z,56.26
2023-03-23T09:33:47.542Z,52.24
2023-03-23T09:34:47.545Z,48.99
2023-03-23T09:35:47.537Z,52.22
2023-03-23T09:36:47.473Z,50.26
2023-03-23T09:37:47.482Z,48.36
2023-03-23T09:38:47.486Z,51.50
2023-03-23T09:39:47.450Z,55.65
2023-03-23T09:40:48.438Z,52.45
2023-03-23T09:41:47.458Z,51.11
2023-03-23T09:42:47.449Z,51.12
2023-03-23T09:43:47.470Z,53.16
2023-03-23T09:44:47.493Z,50.65
2023-03-23T09:45:48.670Z,54.59
2023-03-23T09:46:48.623Z,51.22
2023-03-23T09:47:48.604Z,54.32
2023-03-23T09:48:48.655Z,51.74
2023-03-23T09:49:48.598Z,52.51
2023-03-23T09:50:48.590Z,52.92
2023-03-23T09:51:48.620Z,51.50
2023-03-23T09:52:48.518Z,54.30
2023-03-23T09:53:48.561Z,52.73
2023-03-23T09:54:48.534Z,49.98
2023-03-23T09:55:48.453Z,51.69
2023-03-23T09:56:48.489Z,53.14
2023-03-23T09:57:48.484Z,52.00
2023-03-23T09:58:48.448Z,55.39
2023-03-23T09:59:48.459Z,50.31
2023-03-23T10:00:48.526Z,52.29
2023-03-23T10:01:48.444Z,50.26
2023-03-23T10:02:49.016Z,52.08
2023-03-23T10:03:48.419Z,50.35
2023-03-23T10:04:48.424Z,52.17
2023-03-23T10:05:48.408Z,54.91
2023-03-23T10:06:48.426Z,53.26
2023-03-23T10:07:50.309Z,50.46
2023-03-23T10:08:56.811Z,50.78
2023-03-23T10:09:50.417Z,53.82
2023-03-23T10:10:48.329Z,46.85
2023-03-23T10:11:48.761Z,51.53
2023-03-23T10:12:49.277Z,53.28
2023-03-23T10:13:48.251Z,49.31
2023-03-23T10:14:48.264Z,48.64
2023-03-23T10:15:48.269Z,50.38
2023-03-23T10:16:48.287Z,48.14
2023-03-23T10:17:48.285Z,50.51
2023-03-23T10:18:48.256Z,47.47
2023-03-23T10:19:48.230Z,54.21
2023-03-23T10:20:48.229Z,51.20
2023-03-23T10:21:48.212Z,53.94
2023-03-23T10:22:48.288Z,53.31
2023-03-23T10:23:48.205Z,53.03
2023-03-23T10:24:48.192Z,52.54
2023-03-23T10:25:48.179Z,51.92
2023-03-23T10:26:48.140Z,54.16
2023-03-23T10:27:48.196Z,51.69
2023-03-23T10:28:48.128Z,55.55
2023-03-23T10:29:48.141Z,51.21
2023-03-23T10:30:48.144Z,51.07
2023-03-23T10:31:48.079Z,51.76
2023-03-23T10:32:48.090Z,50.69
2023-03-23T10:33:48.093Z,54.74
2023-03-23T10:34:48.084Z,51.90
2023-03-23T10:35:48.116Z,52.88
2023-03-23T10:36:48.057Z,48.44
2023-03-23T10:37:48.069Z,52.80
2023-03-23T10:38:48.069Z,53.74
2023-03-23T10:39:48.069Z,53.94
2023-03-23T10:40:48.123Z,51.01
2023-03-23T10:41:47.999Z,56.78
2023-03-23T10:42:48.004Z,50.05
2023-03-23T10:43:48.025Z,57.16
2023-03-23T10:44:48.217Z,55.09
2023-03-23T10:45:59.961Z,53.38
2023-03-23T10:46:50.042Z,51.45
2023-03-23T10:47:48.958Z,58.67
2023-03-23T10:48:48.048Z,62.04
2023-03-23T10:49:47.925Z,57.09
2023-03-23T10:50:47.976Z,57.37
2023-03-23T10:51:47.944Z,53.58
2023-03-23T10:52:47.927Z,57.44
2023-03-23T10:53:47.903Z,54.39
2023-03-23T10:54:47.918Z,51.47
2023-03-23T10:55:47.933Z,49.99
2023-03-23T10:56:58.838Z,52.85
2023-03-23T10:57:49.849Z,52.84
2023-03-23T10:58:47.829Z,52.62
2023-03-23T10:59:47.834Z,54.16
2023-03-23T11:00:47.821Z,54.32
2023-03-23T11:01:47.801Z,52.93
2023-03-23T11:02:47.797Z,52.27
2023-03-23T11:03:47.785Z,49.79
2023-03-23T11:04:47.794Z,53.28
2023-03-23T11:05:47.777Z,53.38
2023-03-23T11:06:47.750Z,51.11
2023-03-23T11:07:47.748Z,53.21
2023-03-23T11:08:47.746Z,54.93
2023-03-23T11:09:47.751Z,50.94
2023-03-23T11:10:47.748Z,50.05
2023-03-23T11:11:47.701Z,54.91
2023-03-23T11:12:47.723Z,49.13
2023-03-23T11:13:47.689Z,49.77
2023-03-23T11:14:47.724Z,50.80
2023-03-23T11:15:47.683Z,50.34
2023-03-23T11:16:47.654Z,52.76
2023-03-23T11:17:47.660Z,50.92
2023-03-23T11:18:47.654Z,52.41
2023-03-23T11:19:47.645Z,50.06
2023-03-23T11:20:47.659Z,50.34
2023-03-23T11:21:47.646Z,55.64
2023-03-23T11:22:47.618Z,53.45
2023-03-23T11:23:48.240Z,52.10
2023-03-23T11:24:47.630Z,51.14
2023-03-23T11:25:47.643Z,55.28
2023-03-23T11:26:56.913Z,60.16
2023-03-23T11:27:49.550Z,53.43
2023-03-23T11:28:47.518Z,50.24
2023-03-23T11:29:55.003Z,55.74
2023-03-23T11:30:48.517Z,52.40
2023-03-23T11:31:47.524Z,54.54
2023-03-23T11:32:47.488Z,51.04
2023-03-23T11:33:52.038Z,54.66
2023-03-23T11:34:48.483Z,52.48
2023-03-23T11:35:47.493Z,52.62
2023-03-23T11:36:47.449Z,53.40
2023-03-23T11:37:47.438Z,49.53
2023-03-23T11:38:47.445Z,51.28
2023-03-23T11:39:47.425Z,49.82
2023-03-23T11:40:47.413Z,51.16
2023-03-23T11:41:48.203Z,52.86
2023-03-23T11:42:47.464Z,48.32
2023-03-23T11:43:47.496Z,55.62
2023-03-23T11:44:47.406Z,48.73
2023-03-23T11:45:47.549Z,54.72
2023-03-23T11:46:48.460Z,48.12
2023-03-23T11:47:47.473Z,54.52
2023-03-23T11:48:47.497Z,52.00
2023-03-23T11:49:47.476Z,54.53
2023-03-23T11:50:47.438Z,50.41
2023-03-23T11:51:47.533Z,54.82
2023-03-23T11:52:56.164Z,49.31
2023-03-23T11:54:21.465Z,53.75
2023-03-23T11:54:47.307Z,55.52
2023-03-23T11:55:47.328Z,49.11
2023-03-23T11:56:47.257Z,47.70
2023-03-23T11:57:47.298Z,57.91
2023-03-23T11:58:47.348Z,53.03
2023-03-23T11:59:47.274Z,51.76
2023-03-23T12:00:48.581Z,51.56
2023-03-23T12:01:47.236Z,51.72
2023-03-23T12:02:47.244Z,52.22
2023-03-23T12:03:47.231Z,51.73
2023-03-23T12:04:47.189Z,54.64
2023-03-23T12:05:47.262Z,49.50
2023-03-23T12:06:47.228Z,52.64
2023-03-23T12:07:47.167Z,54.86
2023-03-23T12:08:47.272Z,52.55
2023-03-23T12:09:47.151Z,53.11
2023-03-23T12:11:48.167Z,52.91
2023-03-23T12:12:47.168Z,53.68
2023-03-23T12:13:52.969Z,49.50
2023-03-23T12:14:48.103Z,55.52
2023-03-23T12:15:47.208Z,48.16
2023-03-23T12:16:47.154Z,55.62
2023-03-23T12:17:47.136Z,58.35
2023-03-23T12:18:47.084Z,57.43
2023-03-23T12:19:47.090Z,54.30
2023-03-23T12:20:47.113Z,51.29
2023-03-23T12:21:47.042Z,55.56
2023-03-23T12:22:47.043Z,54.57
2023-03-23T12:23:47.032Z,54.22
2023-03-23T12:24:47.039Z,53.53
2023-03-23T12:25:51.503Z,50.21
2023-03-23T12:26:47.066Z,49.54
2023-03-23T12:27:47.064Z,53.71
2023-03-23T12:28:47.020Z,52.28
2023-03-23T12:29:47.061Z,53.14
2023-03-23T12:30:47.076Z,53.93
2023-03-23T12:31:47.017Z,54.28
2023-03-23T12:32:48.033Z,55.84
2023-03-23T12:33:48.870Z,52.62
2023-03-23T12:34:46.946Z,53.70
2023-03-23T12:35:47.079Z,51.14
2023-03-23T12:36:46.930Z,54.00
2023-03-23T12:37:47.002Z,54.06
2023-03-23T12:38:46.953Z,54.22
2023-03-23T12:39:46.918Z,51.33
2023-03-23T12:40:47.086Z,52.63
2023-03-23T12:41:47.002Z,50.09
2023-03-23T12:42:46.944Z,52.56
2023-03-23T12:43:46.936Z,53.26
2023-03-23T12:44:46.928Z,51.90
2023-03-23T12:45:46.969Z,49.12
2023-03-23T12:46:47.819Z,50.24
2023-03-23T12:47:46.884Z,51.57
2023-03-23T12:48:46.915Z,53.06
2023-03-23T12:49:46.843Z,54.13
2023-03-23T12:50:46.894Z,55.51
2023-03-23T12:51:46.754Z,54.61
2023-03-23T12:52:46.824Z,58.84
2023-03-23T12:53:46.756Z,53.52
2023-03-23T12:54:46.760Z,53.92
2023-03-23T12:55:46.737Z,56.76
2023-03-23T12:56:46.776Z,52.88
2023-03-23T12:57:46.676Z,55.51
2023-03-23T12:58:47.522Z,57.83
2023-03-23T12:59:46.716Z,51.92
2023-03-23T13:00:46.680Z,56.11
2023-03-23T13:01:46.688Z,52.45
2023-03-23T13:02:46.703Z,49.69
2023-03-23T13:03:48.157Z,51.81